American Falls, ID (83211)

11:34 AM MST on February 09, 2016 (GMT -0700)
The Hood | | Change Station
CLOSE
Current Station
Personal Weather Station
Location: Rockland, ID
Elevation: 4560 ft
Nearby Weather Stations

Elev 4560 ft 42.57 °N, 112.88 °W | Updated 30 seconds ago

Overcast
Overcast
34.5 °F
Feels Like 34 °F
N
1.7
Wind Variable Wind from NNE

Today
High -- | Low -- °F
--% Chance of Precip.
Yesterday
High -- | Low -- °F
Precip. -- in
Pressure 30.61 in
Visibility 0.5 miles
Clouds
Windchill 34 °F
Dew Point 29 °F
Humidity 79%
Rainfall 0.00 in
Snow Depth Not available.
7:37 AM 5:55 PM
New Moon, 2% visible
SPECI KPIH 091805Z 04004KT 1/2SM R21/1600V2600FT FZFG VV002 M04/M04 A3061 RMK AO2 T10391044
Pressure 30.61 in
Visibility 0.5 miles
Clouds
Windchill 34 °F
Dew Point 29 °F
Humidity 79%
Rainfall 0.00 in
Snow Depth Not available.
7:37 AM 5:55 PM
New Moon, 2% visible
SPECI KPIH 091805Z 04004KT 1/2SM R21/1600V2600FT FZFG VV002 M04/M04 A3061 RMK AO2 T10391044

10-Day Weather Forecast

Almanac

Astronomy

Feb. 09, 2016 Rise Set
Actual Time
Civil Twilight
Nautical Twilight
Astronomical Twilight
Moon
Length of Visible Light
Length of Day
Tomorrow will be .
, % of the Moon is Illuminated

Today's Extremes

State Highs State Lows

Community

WunderPhotos

Upload Photos

1,891,656 photos uploaded!

WunderBlog® & News

Nearby

Air Quality

  Air Quality AQ Index Pollutant
Not available.

Snow Depth

Station Depth Elevation

Earthquake Activity

City Distance Mag. Time & Date
Minimum magnitude displayed is 2.5.

Coastal Water Temperatures

Place Temperature

Stations

Nearby Weather Stations

Station Location Temp. Windchill Dew Point Humidity Wind Precip. Elev Updated Type
                   

Watches & Warnings

There are currently no watches in effect.